Terminal Aerodrome Forecast
Issued by NWS

Home | Current Version | Previous Version | Text Only | Print | Product List | Glossary Off
Versions: 1 2 3 4 5 6 7 8 9 10 11 12 13 14 15 16 17

000
FTUS45 KGGW 220855 AAA
TAFOLF
TAF AMD
KOLF 220855Z 2209/2306 04006KT 2SM -SN SCT007 OVC015
     FM221200 03009KT 6SM -SHSN OVC007
     FM221800 03009KT P6SM VCSH OVC020
     FM221900 03008KT P6SM BKN015 OVC017
     FM230000 05005KT P6SM SCT030 OVC035=

USA.gov is the U.S. government's official web portal to all federal, state and local government web resources and services.